createdAt,value
2024-04-19T00:00:20.798Z,95783.59
2024-04-19T00:02:23.451Z,95787.53
2024-04-19T00:06:18.936Z,95774.28
2024-04-19T00:07:23.252Z,95764.16
2024-04-19T00:08:25.436Z,95769.63
2024-04-19T00:09:27.585Z,95766.88
2024-04-19T00:10:39.522Z,95764.16
2024-04-19T00:11:42.096Z,95764.16
2024-04-19T00:12:46.506Z,95763.81
2024-04-19T00:13:48.696Z,95763.81
2024-04-19T00:14:53.515Z,95759.09
2024-04-19T00:15:58.399Z,95771.19
2024-04-19T00:17:00.573Z,95759.50
2024-04-19T00:18:05.678Z,95763.81
2024-04-19T00:19:16.793Z,95769.25
2024-04-19T00:20:18.975Z,95757.53
2024-04-19T00:21:41.902Z,95759.50
2024-04-19T00:22:46.866Z,95754.03
2024-04-19T00:23:51.357Z,95761.84
2024-04-19T00:24:53.469Z,95759.50
2024-04-19T00:26:00.983Z,95757.22
2024-04-19T00:27:12.242Z,95754.88
2024-04-19T00:28:20.242Z,95757.63
2024-04-19T00:29:27.217Z,95760.34
2024-04-19T00:30:30.118Z,95764.25
2024-04-19T00:31:32.298Z,95764.25
2024-04-19T00:32:37.205Z,95751.38
2024-04-19T00:33:39.689Z,95756.06
2024-04-19T00:34:44.154Z,95754.88
2024-04-19T00:35:50.968Z,95753.31
2024-04-19T00:36:53.070Z,95753.31
2024-04-19T00:37:55.255Z,95750.59
2024-04-19T00:39:09.186Z,95750.97
2024-04-19T00:40:13.417Z,95745.50
2024-04-19T00:41:18.165Z,95750.19
2024-04-19T00:42:20.390Z,95747.88
2024-04-19T00:43:25.538Z,95751.78
2024-04-19T00:44:32.474Z,95749.44
2024-04-19T00:45:38.099Z,95753.31
2024-04-19T00:46:40.410Z,95747.88
2024-04-19T00:48:07.742Z,95746.34
2024-04-19T00:49:31.151Z,95747.88
2024-04-19T00:50:36.458Z,95746.69
2024-04-19T00:51:43.705Z,95743.97
2024-04-19T00:52:46.285Z,95741.63
2024-04-19T00:53:48.608Z,95741.63
2024-04-19T00:55:09.075Z,95739.66
2024-04-19T00:56:12.434Z,95739.34
2024-04-19T00:57:19.609Z,95742.41
2024-04-19T00:58:22.530Z,95738.13
2024-04-19T00:59:27.694Z,95738.13
2024-04-19T01:00:30.765Z,95733.88
2024-04-19T01:01:33.995Z,95739.34
2024-04-19T01:02:38.464Z,95737.78
2024-04-19T01:04:01.267Z,95730.78
2024-04-19T01:05:03.732Z,95734.69
2024-04-19T01:06:06.755Z,95731.97
2024-04-19T01:07:08.833Z,95736.25
2024-04-19T01:08:13.141Z,95731.97
2024-04-19T01:09:18.468Z,95733.53
2024-04-19T01:10:20.744Z,95731.97
2024-04-19T01:11:23.627Z,95729.22
2024-04-19T01:12:31.907Z,95730.78
2024-04-19T01:13:36.166Z,95734.69
2024-04-19T01:14:38.315Z,95729.22
2024-04-19T01:15:43.254Z,95733.88
2024-04-19T01:16:45.426Z,95732.72
2024-04-19T01:17:47.805Z,95734.69
2024-04-19T01:18:55.185Z,95734.31
2024-04-19T01:19:57.360Z,95730.06
2024-04-19T01:21:12.532Z,95724.59
2024-04-19T01:22:14.859Z,95725.78
2024-04-19T01:23:21.213Z,95729.59
2024-04-19T01:24:32.538Z,95724.59
2024-04-19T01:25:36.986Z,95730.06
2024-04-19T01:26:44.424Z,95727.34
2024-04-19T01:27:46.760Z,95720.69
2024-04-19T01:28:49.194Z,95717.19
2024-04-19T01:29:56.052Z,95724.25
2024-04-19T01:30:58.209Z,95715.66
2024-04-19T01:32:03.032Z,95719.16
2024-04-19T01:33:05.639Z,95713.31
2024-04-19T01:34:10.411Z,95719.56
2024-04-19T01:35:14.729Z,95723.03
2024-04-19T01:36:36.281Z,95714.84
2024-04-19T01:38:37.208Z,95716.06
2024-04-19T01:47:14.199Z,95718.44
2024-04-19T01:48:16.502Z,95712.19
2024-04-19T01:49:21.453Z,95709.88
2024-04-19T01:50:25.649Z,95711.44
2024-04-19T01:51:27.784Z,95704.41
2024-04-19T01:52:31.953Z,95703.66
2024-04-19T01:53:36.737Z,95703.25
2024-04-19T01:54:38.987Z,95699.72
2024-04-19T01:55:43.330Z,95703.66
2024-04-19T01:57:08.085Z,95695.06
2024-04-19T01:58:11.562Z,95695.47
2024-04-19T01:59:13.743Z,95697.44
2024-04-19T02:00:18.990Z,95695.47
2024-04-19T02:01:23.578Z,95692.72
2024-04-19T02:02:29.663Z,95697.44
2024-04-19T02:03:34.416Z,95702.88
2024-04-19T02:04:36.769Z,95697.44
2024-04-19T02:05:38.989Z,95698.19
2024-04-19T02:06:43.378Z,95702.88
2024-04-19T02:08:11.202Z,95697.44
2024-04-19T02:09:13.416Z,95691.97
2024-04-19T02:10:15.667Z,95698.19
2024-04-19T02:11:20.476Z,95703.66
2024-04-19T02:12:24.810Z,95698.19
2024-04-19T02:13:27.046Z,95703.66
2024-04-19T02:14:32.088Z,95694.69
2024-04-19T02:15:34.273Z,95695.88
2024-04-19T02:16:37.000Z,95697.44
2024-04-19T02:17:49.912Z,95696.66
2024-04-19T02:18:52.567Z,95690.41
2024-04-19T02:19:54.706Z,95686.16
2024-04-19T02:20:56.878Z,95688.88
2024-04-19T02:22:01.634Z,95687.31
2024-04-19T02:23:05.868Z,95690.47
2024-04-19T02:24:09.538Z,95685.78
2024-04-19T02:25:14.321Z,95685.03
2024-04-19T02:26:16.441Z,95673.34
2024-04-19T02:27:39.288Z,95678.78
2024-04-19T02:29:01.973Z,95669.81
2024-04-19T02:30:23.091Z,95673.34
2024-04-19T02:31:29.746Z,95676.06
2024-04-19T02:32:32.237Z,95670.59
2024-04-19T02:33:39.782Z,95663.22
2024-04-19T02:34:47.552Z,95663.22
2024-04-19T02:35:54.710Z,95664.78
2024-04-19T02:36:57.083Z,95657.78
2024-04-19T02:38:01.827Z,95661.69
2024-04-19T02:39:04.048Z,95658.53
2024-04-19T02:40:11.977Z,95663.22
2024-04-19T02:41:14.179Z,95664.00
2024-04-19T02:42:19.366Z,95658.53
2024-04-19T02:43:27.508Z,95664.78
2024-04-19T02:44:37.995Z,95664.78
2024-04-19T02:45:50.861Z,95665.56
2024-04-19T02:47:01.493Z,95664.78
2024-04-19T02:48:03.987Z,95664.78
2024-04-19T02:49:11.394Z,95657.78
2024-04-19T02:50:13.609Z,95662.47
2024-04-19T02:51:20.485Z,95661.69
2024-04-19T02:52:23.002Z,95661.69
2024-04-19T02:53:27.956Z,95654.28
2024-04-19T02:54:31.780Z,95652.75
2024-04-19T02:55:37.384Z,95653.91
2024-04-19T02:56:41.576Z,95654.69
2024-04-19T02:57:47.135Z,95653.91
2024-04-19T02:59:09.370Z,95651.94
2024-04-19T03:00:27.331Z,95653.16
2024-04-19T03:01:50.797Z,95652.75
2024-04-19T03:03:10.099Z,95646.13
2024-04-19T03:04:17.629Z,95643.41
2024-04-19T03:05:21.622Z,95649.66
2024-04-19T03:06:24.978Z,95649.66
2024-04-19T03:07:29.770Z,95646.91
2024-04-19T03:08:33.904Z,95652.38
2024-04-19T03:09:38.740Z,95643.41
2024-04-19T03:10:41.497Z,95641.47
2024-04-19T03:11:46.256Z,95642.22
2024-04-19T03:12:48.468Z,95644.97
2024-04-19T03:13:53.014Z,95641.47
2024-04-19T03:14:57.732Z,95640.66
2024-04-19T03:16:06.888Z,95641.47
2024-04-19T03:17:20.061Z,95641.47
2024-04-19T03:18:22.626Z,95642.63
2024-04-19T03:19:29.735Z,95632.91
2024-04-19T03:20:34.666Z,95634.44
2024-04-19T03:21:36.868Z,95639.13
2024-04-19T03:22:41.635Z,95644.59
2024-04-19T03:23:43.802Z,95640.34
2024-04-19T03:24:50.708Z,95637.63
2024-04-19T03:26:30.264Z,95637.19
2024-04-19T03:27:37.560Z,95635.66
2024-04-19T03:28:39.831Z,95637.63
2024-04-19T03:29:44.629Z,95640.66
2024-04-19T03:30:51.486Z,95643.06
2024-04-19T03:31:56.185Z,95628.22
2024-04-19T03:32:58.477Z,95629.00
2024-04-19T03:34:03.395Z,95630.94
2024-04-19T03:35:08.288Z,95631.72
2024-04-19T03:36:12.459Z,95625.50
2024-04-19T03:37:17.260Z,95625.50
2024-04-19T03:38:20.827Z,95629.75
2024-04-19T03:39:23.414Z,95624.28
2024-04-19T03:40:28.182Z,95624.38
2024-04-19T03:41:34.756Z,95621.25
2024-04-19T03:42:46.424Z,95619.69
2024-04-19T03:44:21.356Z,95618.16
2024-04-19T03:45:42.033Z,95622.03
2024-04-19T03:46:46.634Z,95618.91
2024-04-19T03:47:50.048Z,95623.59
2024-04-19T03:48:54.816Z,95615.41
2024-04-19T03:49:57.002Z,95622.03
2024-04-19T03:51:04.429Z,95616.59
2024-04-19T03:52:08.644Z,95619.31
2024-04-19T03:53:13.923Z,95620.53
2024-04-19T03:54:16.192Z,95622.03
2024-04-19T03:55:21.205Z,95624.78
2024-04-19T03:56:25.212Z,95628.69
2024-04-19T03:57:33.300Z,95622.03
2024-04-19T03:58:35.517Z,95622.47
2024-04-19T03:59:42.334Z,95625.97
2024-04-19T04:00:50.786Z,95629.88
2024-04-19T04:01:56.007Z,95629.88
2024-04-19T04:03:00.416Z,95619.75
2024-04-19T04:04:05.868Z,95618.97
2024-04-19T04:05:08.107Z,95622.88
2024-04-19T04:06:17.174Z,95609.66
2024-04-19T04:07:19.370Z,95614.34
2024-04-19T04:08:26.162Z,95621.75
2024-04-19T04:09:29.153Z,95622.94
2024-04-19T04:10:32.121Z,95624.53
2024-04-19T04:11:36.893Z,95620.63
2024-04-19T04:12:39.102Z,95622.16
2024-04-19T04:13:46.132Z,95617.91
2024-04-19T04:14:48.429Z,95616.72
2024-04-19T04:15:50.870Z,95617.56
2024-04-19T04:16:56.402Z,95618.31
2024-04-19T04:17:58.604Z,95616.00
2024-04-19T04:19:08.597Z,95608.56
2024-04-19T04:20:10.786Z,95616.00
2024-04-19T04:21:18.292Z,95610.97
2024-04-19T04:22:20.520Z,95612.91
2024-04-19T04:23:25.604Z,95608.66
2024-04-19T04:24:31.835Z,95608.78
2024-04-19T04:25:37.656Z,95604.78
2024-04-19T04:26:39.935Z,95609.81
2024-04-19T04:27:45.392Z,95605.91
2024-04-19T04:28:47.629Z,95607.44
2024-04-19T04:29:54.461Z,95607.81
2024-04-19T04:30:56.868Z,95606.63
2024-04-19T04:32:01.842Z,95601.19
2024-04-19T04:33:04.825Z,95598.00
2024-04-19T04:34:09.710Z,95608.53
2024-04-19T04:35:14.064Z,95603.06
2024-04-19T04:36:18.959Z,95601.91
2024-04-19T04:37:23.785Z,95601.91
2024-04-19T04:38:26.060Z,95600.34
2024-04-19T04:39:31.030Z,95599.97
2024-04-19T04:40:35.411Z,95594.13
2024-04-19T04:41:41.417Z,95600.34
2024-04-19T04:42:43.662Z,95603.06
2024-04-19T04:43:50.158Z,95605.78
2024-04-19T04:44:52.725Z,95599.16
2024-04-19T04:45:59.645Z,95603.44
2024-04-19T04:47:02.010Z,95602.22
2024-04-19T04:48:07.538Z,95593.28
2024-04-19T04:49:11.909Z,95597.97
2024-04-19T04:50:14.367Z,95597.97
2024-04-19T04:52:14.702Z,95594.03
2024-04-19T04:53:52.249Z,95598.72
2024-04-19T04:56:09.178Z,95592.50
2024-04-19T05:05:12.841Z,95584.69
2024-04-19T05:06:20.940Z,95591.66
2024-04-19T05:07:24.534Z,95591.66
2024-04-19T05:08:31.924Z,95589.38
2024-04-19T05:09:34.174Z,95591.66
2024-04-19T05:10:36.420Z,95583.13
2024-04-19T05:11:43.315Z,95586.22
2024-04-19T05:12:45.552Z,95577.25
2024-04-19T05:13:51.440Z,95585.44
2024-04-19T05:14:53.730Z,95575.28
2024-04-19T05:15:58.589Z,95582.31
2024-04-19T05:17:06.084Z,95577.25
2024-04-19T05:18:11.044Z,95590.13
2024-04-19T05:19:13.322Z,95580.00
2024-04-19T05:20:16.506Z,95586.22
2024-04-19T05:21:21.448Z,95591.25
2024-04-19T05:22:25.675Z,95582.31
2024-04-19T05:23:30.408Z,95577.63
2024-04-19T05:24:35.405Z,95577.63
2024-04-19T05:25:38.024Z,95572.91
2024-04-19T05:26:42.701Z,95574.47
2024-04-19T05:27:47.104Z,95577.22
2024-04-19T05:28:52.163Z,95590.06
2024-04-19T05:29:54.338Z,95580.69
2024-04-19T05:30:58.477Z,95583.47
2024-04-19T05:32:03.405Z,95572.16
2024-04-19T05:33:07.841Z,95577.63
2024-04-19T05:34:14.497Z,95583.06
2024-04-19T05:35:16.763Z,95570.63
2024-04-19T05:36:21.634Z,95571.41
2024-04-19T05:37:23.824Z,95575.66
2024-04-19T05:38:34.523Z,95574.88
2024-04-19T05:39:37.375Z,95572.16
2024-04-19T05:40:42.206Z,95572.91
2024-04-19T05:41:44.442Z,95567.47
2024-04-19T05:42:46.814Z,95566.28
2024-04-19T05:43:54.442Z,95571.72
2024-04-19T05:44:56.782Z,95571.72
2024-04-19T05:46:01.883Z,95573.25
2024-04-19T05:47:04.286Z,95575.22
2024-04-19T05:48:10.341Z,95569.75
2024-04-19T05:49:15.290Z,95565.53
2024-04-19T05:50:17.764Z,95571.00
2024-04-19T05:51:22.700Z,95569.88
2024-04-19T05:52:25.007Z,95574.56
2024-04-19T05:53:27.229Z,95580.44
2024-04-19T05:54:38.214Z,95582.41
2024-04-19T05:55:40.561Z,95571.13
2024-04-19T05:56:45.351Z,95583.41
2024-04-19T05:57:47.681Z,95577.88
2024-04-19T05:58:49.887Z,95584.88
2024-04-19T05:59:57.679Z,95583.75
2024-04-19T06:00:59.886Z,95574.78
2024-04-19T06:02:04.832Z,95579.50
2024-04-19T06:03:12.841Z,95580.31
2024-04-19T06:04:17.789Z,95580.31
2024-04-19T06:05:22.292Z,95578.84
2024-04-19T06:06:27.229Z,95580.03
2024-04-19T06:07:31.632Z,95587.88
2024-04-19T06:08:36.461Z,95582.81
2024-04-19T06:09:41.570Z,95587.50
2024-04-19T06:10:50.314Z,95582.06
2024-04-19T06:11:52.820Z,95568.03
2024-04-19T06:12:57.919Z,95582.91
2024-04-19T06:14:00.035Z,95573.16
2024-04-19T06:15:02.219Z,95577.50
2024-04-19T06:16:11.858Z,95576.72
2024-04-19T06:17:14.077Z,95576.31
2024-04-19T06:18:19.082Z,95582.19
2024-04-19T06:19:21.489Z,95579.09
2024-04-19T06:20:44.652Z,95575.16
2024-04-19T06:21:48.957Z,95577.91
2024-04-19T06:22:53.672Z,95576.72
2024-04-19T06:23:55.792Z,95573.22
2024-04-19T06:25:03.119Z,95579.09
2024-04-19T06:26:05.871Z,95571.25
2024-04-19T06:27:10.171Z,95575.53
2024-04-19T06:28:14.905Z,95577.13
2024-04-19T06:29:17.092Z,95576.72
2024-04-19T06:30:21.896Z,95573.69
2024-04-19T06:31:24.106Z,95580.63
2024-04-19T06:32:31.322Z,95575.16
2024-04-19T06:33:33.565Z,95565.81
2024-04-19T06:34:39.398Z,95571.25
2024-04-19T06:35:41.968Z,95570.19
2024-04-19T06:36:44.187Z,95568.19
2024-04-19T06:37:51.442Z,95564.25
2024-04-19T06:38:53.851Z,95558.78
2024-04-19T06:40:05.488Z,95565.81
2024-04-19T06:41:33.338Z,95565.03
2024-04-19T06:45:50.539Z,95556.13
2024-04-19T06:46:55.360Z,95558.88
2024-04-19T06:48:00.233Z,95565.44
2024-04-19T06:49:02.740Z,95565.81
2024-04-19T06:50:05.504Z,95563.47
2024-04-19T06:51:10.422Z,95561.88
2024-04-19T06:52:14.684Z,95559.50
2024-04-19T06:53:16.894Z,95568.53
2024-04-19T06:54:21.760Z,95563.06
2024-04-19T06:55:23.999Z,95561.88
2024-04-19T06:56:31.444Z,95571.97
2024-04-19T06:57:35.796Z,95565.03
2024-04-19T06:58:40.664Z,95563.44
2024-04-19T06:59:43.338Z,95557.97
2024-04-19T07:01:00.371Z,95559.16
2024-04-19T07:02:10.441Z,95551.31
2024-04-19T07:03:17.776Z,95547.78
2024-04-19T07:04:22.070Z,95552.88
2024-04-19T07:05:24.335Z,95564.16
2024-04-19T07:06:38.525Z,95555.59
2024-04-19T07:07:47.746Z,95561.06
2024-04-19T07:08:54.683Z,95557.13
2024-04-19T07:09:56.941Z,95557.53
2024-04-19T07:11:04.753Z,95555.59
2024-04-19T07:12:09.875Z,95553.63
2024-04-19T07:13:14.759Z,95549.28
2024-04-19T07:14:20.324Z,95553.22
2024-04-19T07:15:25.466Z,95546.97
2024-04-19T07:16:27.648Z,95555.16
2024-04-19T07:17:32.509Z,95546.56
2024-04-19T07:18:34.769Z,95545.38
2024-04-19T07:19:41.974Z,95552.03
2024-04-19T07:20:44.155Z,95556.38
2024-04-19T07:21:50.134Z,95547.78
2024-04-19T07:22:54.150Z,95550.16
2024-04-19T07:23:58.971Z,95552.44
2024-04-19T07:25:03.497Z,95544.59
2024-04-19T07:26:10.135Z,95545.38
2024-04-19T07:27:15.773Z,95549.25
2024-04-19T07:28:20.735Z,95535.59
2024-04-19T07:29:24.186Z,95539.09
2024-04-19T07:30:31.611Z,95537.38
2024-04-19T07:31:34.062Z,95547.50
2024-04-19T07:32:38.868Z,95538.88
2024-04-19T07:33:41.333Z,95543.16
2024-04-19T07:34:46.228Z,95553.38
2024-04-19T07:35:50.546Z,95535.91
2024-04-19T07:36:55.734Z,95533.63
2024-04-19T07:37:57.954Z,95537.63
2024-04-19T07:39:00.171Z,95534.59
2024-04-19T07:40:05.224Z,95532.34
2024-04-19T07:41:12.272Z,95526.59
2024-04-19T07:42:20.561Z,95530.81
2024-04-19T07:43:23.230Z,95518.28
2024-04-19T07:44:25.493Z,95511.22
2024-04-19T07:45:30.317Z,95514.31
2024-04-19T07:46:34.765Z,95517.38
2024-04-19T07:47:58.055Z,95505.41
2024-04-19T07:49:00.520Z,95498.75
2024-04-19T07:50:05.421Z,95496.38
2024-04-19T07:51:07.560Z,95496.50
2024-04-19T07:52:14.789Z,95488.69
2024-04-19T07:53:21.056Z,95487.81
2024-04-19T07:54:26.548Z,95496.38
2024-04-19T07:55:28.742Z,95481.53
2024-04-19T07:56:35.125Z,95490.50
2024-04-19T07:57:42.259Z,95490.09
2024-04-19T07:58:48.015Z,95488.53
2024-04-19T07:59:50.269Z,95486.16
2024-04-19T08:00:55.817Z,95481.00
2024-04-19T08:01:57.976Z,95483.63
2024-04-19T08:03:04.855Z,95479.66
2024-04-19T08:04:07.261Z,95474.19
2024-04-19T08:05:12.129Z,95479.59
2024-04-19T08:06:14.417Z,95477.22
2024-04-19T08:07:24.422Z,95477.88
2024-04-19T08:08:32.894Z,95473.47
2024-04-19T08:09:37.853Z,95478.88
2024-04-19T08:10:40.277Z,95466.81
2024-04-19T08:11:45.066Z,95472.22
2024-04-19T08:12:51.911Z,95469.75
2024-04-19T08:13:58.954Z,95470.94
2024-04-19T08:15:01.156Z,95463.44
2024-04-19T08:18:40.945Z,95463.97
2024-04-19T08:20:39.327Z,95470.94
2024-04-19T08:22:19.440Z,95468.56
2024-04-19T08:24:00.904Z,95475.56
2024-04-19T08:25:24.212Z,95468.56
2024-04-19T08:26:26.495Z,95464.28
2024-04-19T08:27:31.410Z,95462.75
2024-04-19T08:28:36.251Z,95470.09
2024-04-19T08:29:40.551Z,95468.91
2024-04-19T08:30:45.479Z,95456.09
2024-04-19T08:31:47.886Z,95463.88
2024-04-19T08:32:54.600Z,95461.91
2024-04-19T08:33:57.495Z,95454.81
2024-04-19T08:35:05.096Z,95460.28
2024-04-19T08:36:07.903Z,95441.44
2024-04-19T08:37:14.806Z,95450.81
2024-04-19T08:38:16.956Z,95439.06
2024-04-19T08:39:21.761Z,95440.59
2024-04-19T08:40:26.116Z,95446.81
2024-04-19T08:41:34.017Z,95442.81
2024-04-19T08:42:36.238Z,95442.47
2024-04-19T08:43:43.734Z,95436.66
2024-04-19T08:44:49.033Z,95442.03
2024-04-19T08:46:00.908Z,95440.41
2024-04-19T08:47:07.351Z,95438.91
2024-04-19T08:48:12.478Z,95432.16
2024-04-19T08:49:17.022Z,95440.41
2024-04-19T08:50:22.717Z,95438.03
2024-04-19T08:51:37.499Z,95431.22
2024-04-19T08:53:59.696Z,95425.06
2024-04-19T08:55:07.529Z,95427.69
2024-04-19T08:56:12.077Z,95435.13
2024-04-19T08:57:19.862Z,95434.94
2024-04-19T08:58:23.449Z,95430.50
2024-04-19T08:59:32.478Z,95430.84
2024-04-19T09:00:34.765Z,95428.88
2024-04-19T09:01:39.687Z,95422.66
2024-04-19T09:02:44.393Z,95428.81
2024-04-19T09:03:49.328Z,95425.47
2024-04-19T09:04:51.651Z,95419.06
2024-04-19T09:05:53.864Z,95417.53
2024-04-19T09:06:58.727Z,95413.06
2024-04-19T09:08:03.092Z,95415.66
2024-04-19T09:09:08.271Z,95413.25
2024-04-19T09:10:11.837Z,95407.44
2024-04-19T09:11:17.716Z,95403.19
2024-04-19T09:12:20.258Z,95407.03
2024-04-19T09:13:24.587Z,95410.88
2024-04-19T09:14:33.180Z,95405.50
2024-04-19T09:15:37.925Z,95410.53
2024-04-19T09:16:42.799Z,95400.72
2024-04-19T09:17:46.802Z,95405.75
2024-04-19T09:18:57.166Z,95393.63
2024-04-19T09:19:59.966Z,95385.25
2024-04-19T09:21:05.014Z,95394.66
2024-04-19T09:22:07.439Z,95399.19
2024-04-19T09:23:12.398Z,95392.63
2024-04-19T09:24:18.239Z,95394.13
2024-04-19T09:25:23.342Z,95383.56
2024-04-19T09:26:25.684Z,95383.56
2024-04-19T09:27:31.411Z,95383.22
2024-04-19T09:28:33.767Z,95382.38
2024-04-19T09:29:40.689Z,95379.66
2024-04-19T09:30:45.685Z,95393.03
2024-04-19T09:31:47.971Z,95386.81
2024-04-19T09:32:55.739Z,95374.31
2024-04-19T09:33:58.867Z,95370.94
2024-04-19T09:35:06.274Z,95376.03
2024-04-19T09:36:10.689Z,95384.31
2024-04-19T09:37:16.010Z,95376.88
2024-04-19T09:38:20.548Z,95378.25
2024-04-19T09:39:25.632Z,95373.81
2024-04-19T09:40:34.152Z,95367.50
2024-04-19T09:41:39.702Z,95369.03
2024-04-19T09:42:44.176Z,95374.50
2024-04-19T09:43:49.542Z,95382.84
2024-04-19T09:44:57.044Z,95358.78
2024-04-19T09:46:04.669Z,95369.19
2024-04-19T09:47:09.936Z,95365.94
2024-04-19T09:48:12.336Z,95363.91
2024-04-19T09:49:19.895Z,95366.75
2024-04-19T09:50:29.463Z,95362.38
2024-04-19T09:51:39.955Z,95351.81
2024-04-19T09:57:56.238Z,95335.84
2024-04-19T10:01:21.453Z,95329.25
2024-04-19T10:03:21.666Z,95323.28
2024-04-19T10:04:31.707Z,95336.78
2024-04-19T10:05:34.030Z,95322.94
2024-04-19T10:06:42.751Z,95313.97
2024-04-19T10:07:46.846Z,95322.19
2024-04-19T10:08:53.007Z,95321.13
2024-04-19T10:09:58.144Z,95321.94
2024-04-19T10:11:03.311Z,95317.31
2024-04-19T10:12:06.928Z,95313.41
2024-04-19T10:13:11.965Z,95318.34
2024-04-19T10:14:14.487Z,95301.53
2024-04-19T10:15:21.913Z,95299.97
2024-04-19T10:16:29.593Z,95293.75
2024-04-19T10:17:31.933Z,95292.88
2024-04-19T10:18:38.501Z,95290.50
2024-04-19T10:19:49.770Z,95286.66
2024-04-19T10:21:01.245Z,95285.22
2024-04-19T10:22:03.996Z,95283.16
2024-04-19T10:23:11.009Z,95279.66
2024-04-19T10:24:16.557Z,95264.72
2024-04-19T10:25:24.633Z,95281.94
2024-04-19T10:26:29.136Z,95269.50
2024-04-19T10:27:34.058Z,95261.84
2024-04-19T10:28:38.995Z,95265.47
2024-04-19T10:29:42.026Z,95258.06
2024-04-19T10:30:46.997Z,95255.31
2024-04-19T10:31:56.365Z,95251.41
2024-04-19T10:33:02.357Z,95254.97
2024-04-19T10:34:04.587Z,95256.00
2024-04-19T10:35:14.763Z,95255.09
2024-04-19T10:36:16.938Z,95254.06
2024-04-19T10:37:23.827Z,95243.88
2024-04-19T10:38:27.597Z,95246.09
2024-04-19T10:39:35.561Z,95235.84
2024-04-19T10:40:37.763Z,95240.63
2024-04-19T10:41:50.769Z,95223.25
2024-04-19T10:43:02.033Z,95229.69
2024-04-19T10:44:15.127Z,95216.56
2024-04-19T10:45:17.414Z,95215.06
2024-04-19T10:46:20.780Z,95222.16
2024-04-19T10:47:28.792Z,95229.06
2024-04-19T10:48:33.678Z,95221.19
2024-04-19T10:49:38.900Z,95216.38
2024-04-19T10:50:43.330Z,95214.19
2024-04-19T10:51:45.541Z,95212.56
2024-04-19T10:52:51.436Z,95212.47
2024-04-19T10:53:56.963Z,95200.88
2024-04-19T10:55:02.232Z,95209.47
2024-04-19T10:56:05.930Z,95207.00
2024-04-19T10:57:10.856Z,95208.72
2024-04-19T10:58:13.483Z,95197.25
2024-04-19T10:59:20.361Z,95195.41
2024-04-19T11:00:24.366Z,95195.22
2024-04-19T11:01:31.453Z,95198.56
2024-04-19T11:02:36.795Z,95190.16
2024-04-19T11:03:42.863Z,95190.94
2024-04-19T11:04:48.523Z,95183.13
2024-04-19T11:05:53.853Z,95190.13
2024-04-19T11:06:56.144Z,95179.88
2024-04-19T11:08:01.800Z,95177.28
2024-04-19T11:09:04.821Z,95178.81
2024-04-19T11:10:11.919Z,95179.22
2024-04-19T11:11:15.128Z,95173.34
2024-04-19T11:12:20.040Z,95164.41
2024-04-19T11:13:22.514Z,95176.41
2024-04-19T11:14:29.456Z,95143.22
2024-04-19T11:15:40.230Z,95153.88
2024-04-19T11:16:53.159Z,95159.69
2024-04-19T11:17:58.209Z,95162.41
2024-04-19T11:19:05.450Z,95152.72
2024-04-19T11:20:08.487Z,95156.88
2024-04-19T11:21:15.974Z,95151.50
2024-04-19T11:22:22.924Z,95143.91
2024-04-19T11:23:27.860Z,95149.38
2024-04-19T11:24:31.535Z,95144.72
2024-04-19T11:25:37.815Z,95152.38
2024-04-19T11:26:43.171Z,95132.16
2024-04-19T11:27:48.051Z,95143.84
2024-04-19T11:32:01.715Z,95135.97
2024-04-19T11:34:02.624Z,95139.47
2024-04-19T11:35:11.899Z,95138.72
2024-04-19T11:39:30.256Z,95125.03
2024-04-19T11:41:12.427Z,95117.28
2024-04-19T11:44:33.985Z,95125.88
2024-04-19T11:45:41.627Z,95122.06
2024-04-19T11:46:47.158Z,95118.22
2024-04-19T11:47:51.247Z,95125.25
2024-04-19T11:48:56.189Z,95118.91
2024-04-19T11:49:59.395Z,95114.13
2024-04-19T11:51:12.940Z,95106.13
2024-04-19T11:52:15.127Z,95104.38
2024-04-19T11:53:20.371Z,95103.28
2024-04-19T11:54:25.544Z,95105.03
2024-04-19T11:55:30.494Z,95096.19
2024-04-19T11:56:34.838Z,95093.91
2024-04-19T11:57:39.712Z,95089.94
2024-04-19T11:58:41.966Z,95091.38
2024-04-19T11:59:44.162Z,95100.00
2024-04-19T12:00:49.124Z,95094.44
2024-04-19T12:01:53.482Z,95089.31
2024-04-19T12:02:58.410Z,95091.28
2024-04-19T12:04:00.788Z,95098.47
2024-04-19T12:05:06.004Z,95085.03
2024-04-19T12:06:11.465Z,95089.53
2024-04-19T12:07:19.026Z,95091.94
2024-04-19T12:08:21.595Z,95096.97
2024-04-19T12:09:26.629Z,95071.94
2024-04-19T12:10:28.906Z,95073.81
2024-04-19T12:11:31.974Z,95083.72
2024-04-19T12:13:15.895Z,95067.88
2024-04-19T12:14:56.750Z,95080.38
2024-04-19T12:16:05.176Z,95076.53
2024-04-19T12:16:54.777Z,95077.72
2024-04-19T12:18:07.126Z,95068.13
2024-04-19T12:19:09.845Z,95068.56
2024-04-19T12:20:24.975Z,95068.56
2024-04-19T12:21:42.531Z,95062.22
2024-04-19T12:22:55.494Z,95064.53
2024-04-19T12:24:06.042Z,95069.66
2024-04-19T12:25:12.536Z,95066.91
2024-04-19T12:26:15.558Z,95063.00
2024-04-19T12:27:20.925Z,95075.44
2024-04-19T12:28:26.128Z,95071.72
2024-04-19T12:29:33.425Z,95049.53
2024-04-19T12:30:36.311Z,95057.09
2024-04-19T12:31:41.746Z,95068.00
2024-04-19T12:32:44.140Z,95060.66
2024-04-19T12:33:49.063Z,95049.22
2024-04-19T12:34:53.319Z,95060.88
2024-04-19T12:35:58.260Z,95056.50
2024-04-19T12:37:03.159Z,95047.66
2024-04-19T12:38:09.318Z,95048.88
2024-04-19T12:39:11.614Z,95050.06
2024-04-19T12:40:16.097Z,95063.63
2024-04-19T12:41:21.366Z,95043.88
2024-04-19T12:42:23.589Z,95037.06
2024-04-19T12:43:28.508Z,95048.00
2024-04-19T12:44:30.950Z,95050.59
2024-04-19T12:45:38.030Z,95058.59
2024-04-19T12:46:43.169Z,95044.59
2024-04-19T12:47:48.101Z,95036.94
2024-04-19T12:48:53.863Z,95040.03
2024-04-19T12:49:56.106Z,95052.47
2024-04-19T12:51:04.954Z,95048.56
2024-04-19T12:52:09.936Z,95026.78
2024-04-19T12:53:14.726Z,95044.59
2024-04-19T12:54:19.540Z,95037.97
2024-04-19T12:55:21.900Z,95020.22
2024-04-19T12:56:29.299Z,95037.63
2024-04-19T12:57:31.904Z,95023.97
2024-04-19T12:58:37.723Z,95026.78
2024-04-19T12:59:40.780Z,95010.84
2024-04-19T13:00:43.091Z,95016.63
2024-04-19T13:01:49.988Z,95028.66
2024-04-19T13:02:55.638Z,95023.41
2024-04-19T13:04:01.307Z,95027.25
2024-04-19T13:05:03.772Z,95029.63
2024-04-19T13:06:06.201Z,95022.75
2024-04-19T13:07:16.042Z,95023.75
2024-04-19T13:08:18.539Z,95020.91
2024-04-19T13:09:25.497Z,95023.75
2024-04-19T13:10:27.778Z,95017.06
2024-04-19T13:11:32.704Z,95022.88
2024-04-19T13:14:36.943Z,95020.13
2024-04-19T13:16:16.755Z,95000.88
2024-04-19T13:17:22.648Z,94999.38
2024-04-19T13:18:26.934Z,95014.88
2024-04-19T13:24:10.813Z,95006.13
2024-04-19T13:25:15.670Z,95012.44
2024-04-19T13:26:18.013Z,95010.72
2024-04-19T13:27:23.966Z,95000.22
2024-04-19T13:28:26.226Z,95002.28
2024-04-19T13:29:33.164Z,94990.94
2024-04-19T13:30:35.458Z,95013.13
2024-04-19T13:31:41.749Z,94998.69
2024-04-19T13:32:44.078Z,94998.56
2024-04-19T13:33:46.361Z,95004.69
2024-04-19T13:34:53.506Z,95004.13
2024-04-19T13:35:55.778Z,94992.25
2024-04-19T13:37:00.811Z,94989.38
2024-04-19T13:38:03.290Z,95002.97
2024-04-19T13:39:08.153Z,94998.66
2024-04-19T13:40:15.338Z,94985.03
2024-04-19T13:41:17.613Z,95000.97
2024-04-19T13:42:22.694Z,94989.72
2024-04-19T13:43:24.896Z,94996.81
2024-04-19T13:44:29.706Z,94999.97
2024-04-19T13:45:34.768Z,94991.28
2024-04-19T13:46:40.526Z,94979.88
2024-04-19T13:47:43.125Z,94976.06
2024-04-19T13:48:48.521Z,94982.88